Date,TemperatureHighF,TemperatureAvgF,TemperatureLowF,DewpointHighF,DewpointAvgF,DewpointLowF,HumidityHigh,HumidityAvg,HumidityLow,PressureMaxIn,PressureMinIn,WindSpeedMaxMPH,WindSpeedAvgMPH,GustSpeedMaxMPH,PrecipitationSumIn
2014-1-1,88.0,81.4,73.3,79.9,74.6,68.9,87,80,74,29.83,29.73,6,1,9,0.00
2014-1-2,90.9,83.6,76.7,80.1,75.6,72.2,86,77,68,29.88,29.76,5,0,7,0.00
2014-1-3,87.2,81.8,75.9,78.9,75.4,71.8,88,81,73,29.82,29.68,8,2,12,0.00
2014-1-4,91.1,85.6,79.1,82.1,78.6,74.5,86,80,69,29.76,29.62,7,2,12,0.00
2014-1-5,92.0,86.3,82.6,83.7,79.9,77.3,86,82,74,29.75,29.63,7,2,10,0.00
2014-1-6,90.9,84.6,80.3,80.9,77.5,73.6,87,80,71,29.79,29.68,15,3,20,0.00
2014-1-7,89.4,82.4,74.9,77.3,73.8,70.4,86,76,62,29.78,29.69,14,3,20,0.00
2014-1-8,88.5,82.0,75.3,79.7,74.9,69.8,86,79,71,29.83,29.72,16,2,21,0.06
2014-1-9,90.7,83.3,76.1,77.6,74.5,71.9,87,75,61,29.86,29.75,7,1,14,0.00
2014-1-10,87.7,79.4,76.6,76.9,73.4,72.1,86,82,68,29.87,29.78,2,0,10,0.00
2014-1-14,73.7,73.7,73.7,70.6,70.6,70.6,90,90,90,29.85,29.85,1,1,6,0.00
2014-1-19,88.4,84.1,77.8,78.2,75.5,72.7,85,76,69,29.78,29.71,2,0,5,0.00
2014-1-20,90.2,82.3,73.5,79.3,75.1,70.1,90,79,69,29.79,29.69,3,0,6,0.00
2014-1-21,90.2,81.3,73.4,78.7,73.8,69.7,89,79,66,29.81,29.71,14,2,18,0.00
2014-1-22,77.2,76.3,74.9,71.6,70.9,70.1,85,83,82,29.80,29.75,0,0,4,0.00
2014-2-10,76.9,76.4,75.4,71.0,70.4,68.8,82,82,79,29.84,29.78,0,0,4,0.02
2014-2-11,81.6,78.9,76.3,68.7,66.4,64.1,66,66,65,29.81,29.77,1,0,4,0.00
2014-2-16,88.6,83.6,79.6,99.9,-1.4,-8.1,38,4,3,29.74,29.61,9,4,12,0.00
2014-2-17,78.4,77.7,76.8,-8.9,-9.4,-10.0,3,3,3,29.71,29.66,0,0,2,0.00
2014-2-18,87.7,81.3,73.8,99.9,81.9,-7.2,57,3,3,29.73,29.61,7,1,11,0.17
2014-2-19,91.7,83.1,77.3,59.1,3.3,-9.7,34,6,3,29.67,29.55,0,0,1,0.00
2014-2-20,90.6,84.0,78.7,68.8,15.7,-8.7,49,13,3,29.72,29.59,12,2,18,0.03
2014-2-21,95.8,85.2,78.6,77.6,19.4,-8.8,57,17,3,29.75,29.64,3,0,10,0.01
2014-2-22,91.4,83.3,77.6,71.2,14.0,-9.5,53,14,3,29.79,29.69,3,0,9,1.31
2014-2-23,87.1,80.0,74.3,59.6,0.4,-11.7,40,7,3,29.84,29.75,2,0,9,0.55
2014-2-24,88.9,80.6,75.5,67.9,11.4,-10.8,51,13,3,29.88,29.77,6,0,12,0.29
2014-2-25,89.2,80.4,74.4,72.3,21.5,-11.6,58,21,3,29.87,29.75,3,0,12,0.02
2014-2-26,91.5,81.9,73.6,74.3,30.6,-12.1,58,28,3,29.86,29.75,2,0,12,0.02
2014-2-27,88.3,79.5,74.0,71.6,9.7,-11.9,58,13,3,29.89,29.78,6,0,12,0.13
2014-2-28,88.9,80.6,73.9,71.1,22.2,-11.9,56,20,3,29.88,29.77,5,0,9,0.03
2014-3-1,83.6,76.9,71.9,47.9,-5.5,-13.3,29,5,3,29.85,29.75,5,0,12,0.28
2014-3-2,91.1,81.4,72.5,73.3,28.8,-12.9,58,27,3,29.87,29.74,3,0,12,0.02
2014-3-3,87.0,79.4,75.0,61.8,0.2,-11.2,43,6,3,29.90,29.80,5,0,15,0.76
2014-3-4,90.6,81.4,76.5,73.8,19.4,-10.2,58,21,3,29.92,29.83,3,1,17,0.18
2014-3-5,86.9,79.0,74.9,68.8,7.1,-11.3,56,12,3,29.90,29.80,5,0,12,0.11
2014-3-6,88.7,80.5,74.0,72.3,33.0,-11.9,59,31,3,29.86,29.78,5,1,14,0.02
2014-3-7,90.3,80.4,74.0,73.5,26.8,-11.9,58,25,3,29.85,29.75,3,1,10,0.08
2014-3-8,84.0,78.4,75.0,57.5,10.8,-11.2,43,12,3,29.83,29.72,5,1,13,0.04
2014-3-9,93.4,84.2,76.7,75.7,54.0,0.9,59,40,5,29.79,29.67,7,0,12,0.00
2014-3-10,91.9,83.2,77.3,74.0,41.4,-9.7,60,36,3,29.85,29.73,3,0,10,0.00
2014-3-11,84.6,78.6,75.2,56.2,9.0,-11.1,38,10,3,29.86,29.77,2,0,10,0.09
2014-3-12,86.9,77.7,74.2,65.4,0.1,-11.8,49,8,3,29.91,29.79,3,0,9,2.43
2014-3-22,74.0,74.0,74.0,99.9,99.9,99.9,0,0,100,29.78,29.78,0,0,1,0.00
2014-3-25,85.6,80.0,75.8,99.9,15.5,-10.6,50,14,3,29.87,29.76,2,0,6,0.13
2014-3-26,86.6,79.2,74.2,65.0,10.8,-11.7,51,14,3,29.88,29.76,9,2,15,0.10
2014-3-27,86.2,80.1,75.2,63.0,7.9,-11.1,46,11,3,29.90,29.80,9,2,14,0.34
2014-3-28,88.9,80.5,76.6,66.2,5.7,-10.1,49,10,3,29.94,29.84,2,0,7,0.27
2014-3-29,89.8,82.5,76.4,72.6,23.4,-10.3,58,22,3,29.95,29.86,8,1,14,0.01
2014-3-30,91.3,82.6,75.2,74.2,31.5,-11.1,59,28,3,29.97,29.86,3,0,12,0.00
2014-3-31,90.7,82.7,74.3,74.2,35.0,-11.7,60,30,3,29.94,29.84,6,1,14,0.00
2014-4-1,89.4,80.6,73.5,72.5,22.1,-12.2,59,24,3,29.92,29.81,3,0,14,0.03
2014-4-2,88.6,80.3,74.6,71.9,25.1,-11.5,58,25,3,29.90,29.80,5,0,14,0.60
2014-4-3,90.1,80.6,71.9,72.6,34.4,-13.3,59,32,3,29.90,29.80,3,1,14,0.00
2014-4-4,88.8,80.7,74.9,71.1,21.4,-11.3,56,22,3,29.91,29.81,3,0,12,0.46
2014-4-5,88.6,81.1,76.1,70.5,21.0,-10.5,56,21,3,29.94,29.84,3,0,12,0.15
2014-4-6,88.8,80.7,74.1,71.4,27.1,-11.8,59,26,3,29.94,29.83,3,1,15,0.02
2014-4-7,89.7,79.7,70.3,71.9,32.5,-14.4,59,31,3,29.91,29.81,5,1,12,0.00
2014-4-8,89.7,81.7,75.5,72.5,47.1,-0.3,59,36,5,29.91,29.82,5,1,14,0.00
2014-4-9,88.6,80.4,73.6,71.4,24.4,-12.1,59,25,3,29.90,29.79,3,1,12,0.01
2014-4-10,75.2,74.9,74.3,-11.1,-11.3,-11.7,3,3,3,29.87,29.82,1,0,7,0.00
2014-4-11,85.9,76.4,71.9,99.9,45.4,-12.3,16,2,3,29.80,29.65,5,1,11,0.49
2014-4-12,79.3,77.4,75.5,-8.3,-9.6,-10.9,3,3,3,29.68,29.43,23,8,41,4.80
2014-4-13,90.8,82.6,74.9,72.8,25.5,-11.3,56,19,3,29.76,29.51,13,4,23,0.02
2014-4-14,91.0,82.3,77.1,72.4,20.5,-9.8,56,20,3,29.86,29.73,3,0,9,0.12
2014-4-15,90.9,82.3,75.0,72.0,31.6,-11.2,57,28,3,29.93,29.82,2,0,12,0.00
2014-4-16,87.9,81.1,74.5,70.7,29.5,-11.5,57,26,3,29.94,29.84,2,0,12,0.00
2014-4-17,87.9,80.1,74.4,70.2,23.7,-11.6,56,22,3,29.99,29.87,2,0,12,0.05
2014-4-18,87.2,79.7,74.5,69.4,22.2,-11.5,57,22,3,29.99,29.89,5,0,12,0.02
2014-4-19,87.3,79.1,72.6,68.8,31.9,-12.8,58,31,3,29.99,29.88,3,0,10,0.13
2014-4-20,86.3,77.7,68.7,65.9,33.3,-15.5,59,33,3,29.98,29.89,2,0,10,0.00
2014-4-21,83.6,76.6,72.8,61.8,15.1,-12.7,48,15,3,30.00,29.90,3,0,10,0.06
2014-4-22,83.6,76.1,73.3,54.1,-2.9,-12.3,37,6,3,30.02,29.90,3,0,10,0.24
2014-4-23,86.9,79.3,73.5,65.5,10.7,-12.2,49,13,3,29.93,29.82,3,0,9,0.02
2014-4-24,81.1,76.5,74.6,-7.1,-10.2,-11.5,3,3,3,29.89,29.80,3,0,10,2.21
2014-4-25,79.1,76.4,75.3,-8.4,-10.2,-11.0,3,3,3,29.94,29.80,6,0,13,1.76
2014-4-26,87.1,79.3,74.8,66.9,15.2,-11.3,52,16,3,29.94,29.84,5,0,16,0.02
2014-4-27,88.6,79.4,72.1,69.5,23.6,-13.1,54,23,3,29.99,29.87,3,0,12,0.00
2014-4-28,87.4,78.6,71.6,68.2,27.6,-13.5,56,26,3,29.97,29.87,3,0,12,0.00
2014-4-29,87.1,77.0,67.5,68.0,25.8,-16.3,55,27,3,29.96,29.83,3,0,12,0.00
2014-4-30,88.6,77.5,67.2,69.4,23.7,-16.5,55,25,3,29.94,29.82,5,0,12,0.00
2014-5-1,87.8,78.1,68.8,68.4,21.6,-15.4,54,24,3,29.96,29.83,7,1,12,0.00
2014-5-2,85.2,77.7,70.2,65.5,12.4,-14.4,52,15,3,29.90,29.74,13,3,20,0.00
2014-5-3,75.8,74.9,74.1,-10.7,-11.2,-11.8,3,3,3,29.79,29.75,0,0,1,0.00
2014-6-10,83.0,74.8,66.9,51.9,15.6,-16.7,35,16,3,29.91,29.82,2,0,6,0.01
2014-6-11,76.1,71.4,66.3,-10.5,-13.6,-17.1,3,3,3,29.92,29.83,5,1,14,0.30
2014-6-12,72.0,71.3,69.7,-13.3,-13.7,-14.8,3,3,3,29.87,29.85,3,1,12,0.00
2014-6-26,72.4,72.2,72.1,20.5,20.4,20.3,14,14,14,30.07,30.06,1,0,7,0.00
2014-6-27,80.3,71.9,64.9,99.9,24.4,-38.3,43,20,1,30.10,29.96,3,0,13,0.00
2014-6-28,87.1,72.1,63.6,61.6,7.1,-18.9,46,14,3,30.01,29.85,8,1,12,0.00
2014-6-29,82.4,72.2,64.5,56.6,21.8,-18.3,52,24,3,30.03,29.90,3,0,9,0.01
2014-6-30,77.5,66.8,57.5,52.3,21.8,-23.1,54,28,3,30.13,30.02,5,0,10,0.00
2014-7-1,76.3,65.8,55.2,53.2,34.1,-24.7,50,35,3,30.19,30.08,5,1,15,0.00
2014-7-2,78.0,69.7,62.4,54.7,46.2,37.4,48,43,33,30.15,30.03,3,1,14,0.00
2014-7-3,78.9,69.8,64.0,46.8,-1.3,-18.6,35,9,3,30.09,30.00,5,0,14,0.03
2014-7-4,80.8,72.0,68.0,48.1,-3.5,-16.0,33,7,3,30.07,29.97,6,0,12,0.05
2014-7-5,81.5,71.0,63.4,55.0,8.4,-19.1,42,15,3,30.05,29.95,3,0,14,0.00
2014-7-6,81.2,68.4,57.1,55.4,16.1,-23.3,49,22,3,30.04,29.93,3,0,12,0.00
2014-7-7,80.4,67.0,55.0,56.4,15.4,-24.8,49,23,3,30.03,29.89,8,0,13,0.00
2014-7-8,78.0,65.6,53.0,53.5,14.8,-26.1,48,23,3,30.03,29.89,3,0,12,0.01
2014-7-9,77.7,70.6,55.4,51.9,21.0,-24.5,43,23,3,30.00,29.86,9,2,15,0.00
2014-7-10,80.7,69.6,59.7,99.9,47.5,-36.2,49,23,1,30.02,29.92,8,1,14,0.00
2014-7-11,79.6,65.1,52.3,55.5,16.2,-26.6,50,24,3,30.10,30.00,5,0,12,0.00
2014-7-12,77.0,67.2,57.8,53.2,19.0,-22.9,49,25,3,30.12,30.02,7,0,16,0.00
2014-7-13,79.5,66.7,54.3,53.3,12.2,-25.3,42,19,3,30.09,29.96,3,0,12,0.00
2014-7-14,79.1,71.3,65.1,51.8,17.4,-17.9,41,20,3,30.11,30.03,3,1,10,0.00
2014-7-15,81.5,72.1,66.5,52.4,4.4,-17.0,37,12,3,30.09,29.97,6,1,10,0.00
2014-7-16,82.9,73.1,65.8,57.1,13.4,-17.4,43,16,3,30.07,29.97,6,0,13,0.00
2014-7-17,84.5,73.2,64.8,58.2,12.1,-18.1,44,17,3,30.07,29.96,3,0,12,0.00
2014-7-18,82.7,70.8,62.6,53.3,20.9,-19.6,53,25,3,30.07,29.97,6,0,13,0.00
2014-7-19,80.7,65.0,52.6,55.3,17.5,-26.4,50,25,3,30.10,30.00,5,0,12,0.00
2014-7-20,77.7,63.8,53.3,54.3,11.8,-25.9,49,22,3,30.12,30.01,5,0,14,0.00
2014-7-21,79.3,65.8,54.7,55.0,14.8,-25.0,49,23,3,30.12,30.02,5,0,13,0.00
2014-7-22,80.9,66.2,56.1,55.9,10.4,-24.0,49,19,3,30.11,29.97,5,0,10,0.00
2014-7-23,80.7,67.2,56.8,56.9,13.1,-23.5,47,21,3,30.07,29.95,3,0,12,0.00
2014-7-24,81.7,69.1,59.2,55.3,12.7,-21.9,44,18,3,30.08,29.98,5,0,12,0.00
2014-7-25,80.1,71.8,65.7,48.6,-2.1,-17.5,34,8,3,30.17,30.04,7,0,13,0.03
2014-7-26,82.3,73.6,68.4,48.7,5.9,-15.7,34,12,3,30.18,30.09,5,1,15,0.06
2014-7-27,78.9,70.8,66.3,32.2,-9.3,-17.1,19,5,3,30.14,30.05,3,0,12,0.04
2014-7-28,73.2,69.8,68.1,-12.4,-14.7,-15.9,3,3,3,30.14,30.05,3,0,10,0.09
2014-7-29,80.3,72.6,65.6,52.7,14.3,-17.6,42,17,3,30.14,30.04,5,0,13,0.02
2014-7-30,79.2,70.3,62.2,45.4,2.9,-19.9,31,11,3,30.11,30.01,2,0,10,0.00
2014-7-31,81.6,72.7,66.4,48.6,3.3,-17.0,33,10,3,30.07,29.95,3,0,9,0.00
2014-8-1,83.8,72.9,65.5,52.3,8.7,-17.6,35,14,3,30.06,29.94,8,1,14,0.00
2014-8-2,84.7,73.5,65.1,57.0,8.8,-17.9,42,14,3,30.09,29.97,3,0,10,0.00
2014-8-3,80.1,72.1,66.2,35.0,-7.5,-17.2,20,5,3,30.13,30.04,5,0,12,0.06
2014-8-4,78.9,72.0,69.0,26.6,-10.8,-15.3,15,4,3,30.15,30.06,5,0,12,0.02
2014-8-5,80.5,72.2,65.5,39.3,-2.1,-17.6,23,7,3,30.16,30.08,3,1,12,0.00
2014-8-6,77.7,71.5,69.4,35.5,-6.6,-15.0,23,6,3,30.19,30.08,5,1,12,0.13
2014-8-7,76.9,69.2,64.9,31.7,-7.6,-18.0,20,6,3,30.18,30.09,5,1,15,0.14
2014-8-8,77.6,69.2,62.7,39.0,-2.0,-19.5,26,8,3,30.17,30.08,6,1,13,0.16
2014-8-9,80.5,70.5,64.1,51.4,8.7,-18.6,39,15,3,30.16,30.05,5,1,14,0.01
2014-8-10,77.1,69.9,66.3,8.0,-14.4,-17.1,7,3,3,30.12,30.03,3,1,12,0.21
2014-8-11,80.8,71.6,63.8,51.5,8.7,-18.8,37,14,3,30.10,29.99,5,1,12,0.00
2014-8-12,81.1,69.7,59.9,54.4,9.4,-21.4,42,16,3,30.10,30.00,3,0,12,0.00
2014-8-13,79.3,69.0,61.3,44.5,4.1,-20.5,31,12,3,30.12,30.03,3,0,12,0.00